Time;durP1;ratioP1;P1;durP2;ratioP2;P2;SDS_P1;SDS_P2;PMS_P1;PMS_P2;Temp;Humidity;BMP_temperature;BMP_pressure;BME280_temperature;BME280_humidity;BME280_pressure;Samples;Min_cycle;Max_cycle;Signal;HPM_P1;HPM_P2
2023/08/16 00:03:16;;;;;;;;;;;27.90;53.70;;;27.33;51.24;101417.50;12269101;19;19918;-86
2023/08/16 00:07:18;;;;;;;;;;;27.80;53.20;;;27.10;51.07;101390.59;12266931;19;19950;-86
2023/08/16 00:11:19;;;;;;;;;;;27.70;53.30;;;27.10;51.04;101409.38;12268386;19;19923;-86
2023/08/16 00:15:22;;;;;;;;;;;27.70;53.30;;;27.33;50.85;101448.84;12268447;19;19951;-86
2023/08/16 00:19:24;;;;;;;;;;;27.70;53.30;;;27.20;51.02;101432.50;12267900;19;20327;-86
2023/08/16 00:23:26;;;;;;;;;;;27.60;53.30;;;27.18;51.45;101426.47;12268931;19;19923;-86
2023/08/16 00:27:28;;;;;;;;;;;27.70;53.40;;;27.22;51.03;101452.78;12265762;19;19911;-86
2023/08/16 00:31:31;;;;;;;;;;;27.60;53.40;;;26.92;51.26;101423.06;12265493;19;19939;-86
2023/08/16 00:35:33;;;;;;;;;;;27.60;53.40;;;27.20;51.22;101475.41;12264004;19;19934;-86
2023/08/16 00:39:34;;;;;;;;;;;27.60;53.50;;;27.17;51.54;101486.47;12265016;19;19921;-87
2023/08/16 00:43:36;;;;;;;;;;;27.50;53.40;;;27.03;51.24;101459.38;12266867;19;19925;-86
2023/08/16 00:47:38;;;;;;;;;;;27.50;53.50;;;27.08;51.30;101466.88;12265441;19;19915;-86
2023/08/16 00:51:40;;;;;;;;;;;27.50;53.50;;;26.91;51.43;101452.72;12266405;19;19926;-86
2023/08/16 00:55:41;;;;;;;;;;;27.50;53.60;;;26.99;50.98;101467.94;12265548;19;19914;-86
2023/08/16 00:59:44;;;;;;;;;;;27.40;53.50;;;26.94;51.42;101457.72;12264748;19;20262;-86
2023/08/16 01:03:46;;;;;;;;;;;27.40;53.50;;;26.87;51.65;101454.91;12259465;19;19911;-86
2023/08/16 01:07:48;;;;;;;;;;;27.40;53.50;;;26.85;51.10;101435.47;12250281;19;19923;-86
2023/08/16 01:11:55;;;;;;;;;;;27.40;53.50;;;26.82;51.70;101435.84;12254704;19;19955;-86
2023/08/16 01:15:59;;;;;;;;;;;27.40;53.60;;;26.88;51.44;101445.84;12252062;19;19922;-86
2023/08/16 01:20:03;;;;;;;;;;;27.30;53.60;;;26.65;51.42;101412.78;12252090;19;19919;-86
2023/08/16 01:24:26;;;;;;;;;;;27.30;53.70;;;26.86;51.32;101452.41;12255213;19;19988;-86
2023/08/16 01:28:28;;;;;;;;;;;27.30;53.70;;;26.62;51.76;101423.84;12248195;19;19939;-86
2023/08/16 01:32:31;;;;;;;;;;;27.30;53.70;;;26.80;51.33;101453.94;12253317;19;20554;-86
2023/08/16 01:36:33;;;;;;;;;;;27.30;53.70;;;26.76;51.70;101441.91;12250174;19;20245;-86
2023/08/16 01:40:38;;;;;;;;;;;27.20;53.80;;;26.74;51.70;101443.09;12249818;19;19919;-86
2023/08/16 01:44:40;;;;;;;;;;;27.20;53.70;;;26.67;51.95;101442.91;12252816;19;19911;-86
2023/08/16 01:48:43;;;;;;;;;;;27.20;53.80;;;26.74;51.65;101459.16;12247100;19;20250;-86
2023/08/16 01:52:46;;;;;;;;;;;27.20;53.80;;;26.68;51.78;101444.59;12250707;19;19946;-86
2023/08/16 01:56:48;;;;;;;;;;;27.20;53.90;;;26.69;51.75;101446.28;12248066;19;19926;-86
2023/08/16 02:00:49;;;;;;;;;;;27.20;53.80;;;26.68;51.50;101456.16;12251118;19;19919;-86
2023/08/16 02:04:52;;;;;;;;;;;27.10;53.90;;;26.66;51.54;101457.34;12251719;19;19911;-86
2023/08/16 02:08:53;;;;;;;;;;;27.10;53.90;;;26.66;51.80;101471.56;12247937;19;19926;-86
2023/08/16 02:12:55;;;;;;;;;;;27.10;53.90;;;26.63;51.69;101468.41;12251252;19;19914;-86
2023/08/16 02:16:56;;;;;;;;;;;27.10;53.90;;;26.60;51.95;101468.72;12247398;19;19935;-86
2023/08/16 02:20:58;;;;;;;;;;;27.10;53.90;;;26.47;52.25;101443.28;12251600;19;19911;-86
2023/08/16 02:24:59;;;;;;;;;;;27.00;54.00;;;26.53;52.13;101455.19;12251550;19;19943;-86
2023/08/16 02:29:01;;;;;;;;;;;27.00;53.90;;;26.31;52.21;101435.28;12244678;19;20357;-86
2023/08/16 02:33:02;;;;;;;;;;;27.00;54.00;;;26.26;51.77;101419.72;12249494;19;19922;-86
2023/08/16 02:37:04;;;;;;;;;;;26.90;54.00;;;26.40;51.81;101444.13;12247784;19;19922;-86
2023/08/16 02:41:05;;;;;;;;;;;26.90;54.10;;;26.26;52.37;101419.72;12249214;19;19911;-86
2023/08/16 02:45:07;;;;;;;;;;;26.90;54.10;;;26.49;52.18;101470.75;12248850;19;19910;-86
2023/08/16 02:49:08;;;;;;;;;;;26.90;54.10;;;26.47;51.86;101464.72;12246350;19;19919;-86
2023/08/16 02:53:11;;;;;;;;;;;27.00;54.20;;;26.36;52.15;101440.97;12249747;19;19923;-86
2023/08/16 02:57:18;;;;;;;;;;;26.90;54.10;;;26.39;52.00;101455.88;12247174;19;19930;-86
2023/08/16 03:01:21;;;;;;;;;;;26.90;54.50;;;26.36;52.46;101451.69;12248363;19;19907;-86
2023/08/16 03:05:22;;;;;;;;;;;26.90;54.10;;;26.22;52.42;101437.16;12246863;19;19975;-86
2023/08/16 03:09:24;;;;;;;;;;;26.90;54.10;;;26.23;52.31;101451.38;12243073;19;19986;-86
2023/08/16 03:13:26;;;;;;;;;;;26.90;54.10;;;26.17;52.13;101452.91;12245734;19;19974;-86
2023/08/16 03:17:28;;;;;;;;;;;26.80;54.10;;;26.28;52.35;101473.13;12243051;19;20355;-86
2023/08/16 03:21:30;;;;;;;;;;;26.80;54.10;;;26.20;52.44;101465.09;12244576;19;20259;-86
2023/08/16 03:25:32;;;;;;;;;;;26.80;54.10;;;26.09;52.38;101452.06;12244432;19;19923;-86
2023/08/16 03:29:34;;;;;;;;;;;26.80;54.60;;;26.20;52.43;101467.78;12241109;19;20007;-86
2023/08/16 03:33:37;;;;;;;;;;;26.80;54.20;;;26.19;52.38;101475.00;12246301;19;19926;-86
2023/08/16 03:37:39;;;;;;;;;;;26.80;54.30;;;26.00;52.44;101453.91;12243809;19;19943;-86
2023/08/16 03:41:41;;;;;;;;;;;26.80;54.20;;;26.19;52.23;101490.19;12245376;19;19915;-86
2023/08/16 03:45:43;;;;;;;;;;;26.80;54.30;;;26.16;52.55;101482.50;12243265;19;19915;-86
2023/08/16 03:49:45;;;;;;;;;;;26.70;54.40;;;26.21;52.46;101497.06;12241966;19;19923;-86
2023/08/16 03:53:47;;;;;;;;;;;26.70;54.30;;;26.10;52.52;101485.84;12246076;19;19939;-86
2023/08/16 03:57:48;;;;;;;;;;;26.70;54.40;;;26.20;52.68;101505.28;12242623;19;20269;-86
2023/08/16 04:01:50;;;;;;;;;;;26.60;54.30;;;25.92;52.59;101462.75;12238726;19;19922;-85
2023/08/16 04:05:52;;;;;;;;;;;26.70;54.40;;;26.16;52.36;101515.47;12244060;19;19921;-86
2023/08/16 04:09:54;;;;;;;;;;;26.60;54.30;;;26.15;52.66;101513.81;12240451;19;19930;-85
2023/08/16 04:13:55;;;;;;;;;;;26.60;54.40;;;26.02;52.62;101497.41;12245797;19;20350;-86
2023/08/16 04:17:56;;;;;;;;;;;26.60;54.40;;;26.00;52.73;101502.91;12241255;19;19974;-85
2023/08/16 04:21:58;;;;;;;;;;;26.60;54.40;;;26.03;52.84;101513.31;12245274;19;19982;-86
2023/08/16 04:25:59;;;;;;;;;;;26.50;54.40;;;26.04;52.95;101520.31;12244517;19;19978;-86
2023/08/16 04:30:02;;;;;;;;;;;26.60;54.50;;;25.83;52.78;101494.03;12241041;19;19919;-86
2023/08/16 04:34:03;;;;;;;;;;;26.50;54.40;;;25.94;52.68;101510.78;12238427;19;19932;-86
2023/08/16 04:38:04;;;;;;;;;;;26.50;54.40;;;26.01;52.69;101527.88;12246055;19;19923;-86
2023/08/16 04:42:06;;;;;;;;;;;26.50;54.50;;;25.87;52.93;101507.94;12255156;19;19934;-86
2023/08/16 04:46:08;;;;;;;;;;;26.50;54.60;;;25.91;53.01;101522.66;12253680;19;19966;-86
2023/08/16 04:50:11;;;;;;;;;;;26.50;54.60;;;25.87;52.80;101520.47;12250992;19;19918;-86
2023/08/16 04:54:12;;;;;;;;;;;26.50;54.60;;;25.93;52.74;101531.38;12254720;19;19915;-86
2023/08/16 04:58:14;;;;;;;;;;;26.50;54.60;;;25.92;52.98;101531.50;12242310;19;19923;-86
2023/08/16 05:02:23;;;;;;;;;;;26.50;54.60;;;25.96;53.01;101540.91;12252103;19;19943;-86
2023/08/16 05:06:24;;;;;;;;;;;26.50;54.60;;;25.96;53.08;101547.09;12250984;19;20018;-86
2023/08/16 05:10:26;;;;;;;;;;;26.50;54.70;;;25.97;52.74;101547.91;12249567;19;19918;-86
2023/08/16 05:14:28;;;;;;;;;;;26.50;54.70;;;25.89;52.75;101540.72;12255201;19;19927;-86
2023/08/16 05:18:31;;;;;;;;;;;26.50;54.80;;;25.92;53.01;101531.50;12248100;19;20346;-86
2023/08/16 05:22:32;;;;;;;;;;;26.50;54.80;;;25.91;52.98;101532.53;12252014;19;19918;-86
2023/08/16 05:26:34;;;;;;;;;;;26.50;54.80;;;25.93;53.38;101541.25;12253503;19;19926;-86
2023/08/16 05:30:35;;;;;;;;;;;26.50;54.90;;;25.97;53.11;101556.78;12253530;19;20346;-86
2023/08/16 05:34:37;;;;;;;;;;;26.50;54.80;;;25.85;53.41;101543.91;12251858;19;19922;-86
2023/08/16 05:38:38;;;;;;;;;;;26.60;54.90;;;26.01;53.26;101571.53;12249449;19;19961;-86
2023/08/16 05:42:40;;;;;;;;;;;26.60;55.00;;;25.99;52.98;101568.16;12252533;19;19922;-86
2023/08/16 05:46:42;;;;;;;;;;;26.60;54.90;;;26.03;53.10;101580.22;12251324;19;20314;-86
2023/08/16 05:50:44;;;;;;;;;;;26.60;55.00;;;26.02;52.86;101581.22;12250061;19;19923;-86
2023/08/16 05:54:45;;;;;;;;;;;26.60;54.90;;;26.02;53.26;101588.41;12251017;19;19923;-86
2023/08/16 05:58:47;;;;;;;;;;;26.60;54.90;;;25.92;53.05;101561.78;12239001;19;20180;-86
2023/08/16 06:02:48;;;;;;;;;;;26.60;54.90;;;25.84;53.49;101559.09;12249413;19;19918;-86
2023/08/16 06:06:50;;;;;;;;;;;26.60;54.80;;;26.02;53.27;101591.09;12247192;19;19922;-86
2023/08/16 06:10:51;;;;;;;;;;;26.60;55.00;;;26.00;53.61;101590.41;12232053;19;19914;-89
2023/08/16 06:14:53;;;;;;;;;;;26.60;55.00;;;26.08;53.25;101603.81;12243078;19;19914;-86
2023/08/16 06:18:54;;;;;;;;;;;26.60;55.20;;;25.89;53.39;101566.66;12245503;19;19915;-85
2023/08/16 06:22:55;;;;;;;;;;;26.70;55.40;;;26.11;53.64;101605.31;12248590;19;19923;-86
2023/08/16 06:26:57;;;;;;;;;;;26.70;55.30;;;26.13;53.42;101606.00;12247328;19;19925;-87
2023/08/16 06:30:58;;;;;;;;;;;26.80;55.20;;;26.16;53.31;101611.03;12245634;19;20333;-90
2023/08/16 06:35:00;;;;;;;;;;;26.80;55.30;;;26.22;53.74;101615.72;12243903;19;19994;-87
2023/08/16 06:39:01;;;;;;;;;;;26.80;55.20;;;26.26;53.78;101614.38;12247309;19;19927;-85
2023/08/16 06:43:03;;;;;;;;;;;26.90;55.20;;;26.33;53.52;101626.13;12249184;19;19923;-85
2023/08/16 06:47:05;;;;;;;;;;;27.00;55.40;;;26.29;53.38;101616.72;12247264;19;20268;-84
2023/08/16 06:51:07;;;;;;;;;;;27.10;55.40;;;26.21;53.39;101593.44;12247926;19;19927;-86
2023/08/16 06:55:08;;;;;;;;;;;27.10;55.20;;;26.46;53.78;101629.16;12248849;19;19914;-84
2023/08/16 06:59:10;;;;;;;;;;;27.10;55.50;;;26.46;53.87;101621.09;12247005;19;19922;-83
2023/08/16 07:03:12;;;;;;;;;;;27.20;55.30;;;26.41;53.62;101610.06;12244779;19;19914;-84
2023/08/16 07:07:14;;;;;;;;;;;27.20;55.20;;;26.56;53.71;101622.81;12243853;19;19986;-83
2023/08/16 07:11:15;;;;;;;;;;;27.20;55.10;;;26.60;53.49;101626.81;12238863;19;20378;-84
2023/08/16 07:15:17;;;;;;;;;;;27.30;55.60;;;26.48;53.45;101612.88;12246945;19;19915;-84
2023/08/16 07:19:19;;;;;;;;;;;27.30;55.30;;;26.55;53.88;101615.78;12251732;19;19942;-84
2023/08/16 07:23:21;;;;;;;;;;;27.30;55.30;;;26.69;53.44;101632.00;12254097;19;19975;-84
2023/08/16 07:27:22;;;;;;;;;;;27.40;55.30;;;26.64;53.72;101623.63;12235981;19;20330;-83
2023/08/16 07:31:23;;;;;;;;;;;27.40;55.40;;;26.73;53.64;101635.19;12243255;19;20564;-84
2023/08/16 07:35:25;;;;;;;;;;;27.50;55.60;;;26.78;53.77;101643.56;12242861;19;19925;-83
2023/08/16 07:39:31;;;;;;;;;;;27.50;55.50;;;26.83;53.78;101637.69;12245022;19;19957;-83
2023/08/16 07:43:32;;;;;;;;;;;27.50;55.40;;;26.56;53.73;101596.00;12246095;19;19922;-84
2023/08/16 07:47:34;;;;;;;;;;;27.60;55.20;;;26.88;53.80;101644.22;12243119;19;20342;-85
2023/08/16 07:51:35;;;;;;;;;;;27.60;55.10;;;26.85;53.75;101644.56;12245352;19;20300;-84
2023/08/16 07:55:37;;;;;;;;;;;27.60;55.20;;;27.01;53.96;101658.97;12243874;19;20449;-84
2023/08/16 07:59:41;;;;;;;;;;;27.70;55.30;;;27.01;53.79;101656.28;12243317;19;19922;-83
2023/08/16 08:03:43;;;;;;;;;;;27.80;55.20;;;27.14;53.82;101668.16;12242712;19;19971;-84
2023/08/16 08:07:44;;;;;;;;;;;27.80;55.10;;;27.22;53.88;101670.00;12241600;19;20246;-83
2023/08/16 08:11:45;;;;;;;;;;;27.90;55.20;;;27.28;53.77;101674.69;12243028;19;19919;-84
2023/08/16 08:15:47;;;;;;;;;;;28.00;55.40;;;27.17;54.16;101658.97;12252898;19;19926;-84
2023/08/16 08:19:48;;;;;;;;;;;28.00;55.20;;;27.44;53.91;101681.03;12253169;19;20282;-84
2023/08/16 08:23:50;;;;;;;;;;;28.10;55.10;;;27.48;53.98;101671.59;12258711;19;19970;-84
2023/08/16 08:27:52;;;;;;;;;;;28.20;55.20;;;27.54;53.80;101665.53;12251470;19;20008;-86
2023/08/16 08:31:54;;;;;;;;;;;28.30;55.20;;;27.63;54.15;101659.16;12257344;19;19947;-85
2023/08/16 08:35:58;;;;;;;;;;;28.50;55.20;;;27.82;53.92;101694.66;12249415;19;19918;-85
2023/08/16 08:40:00;;;;;;;;;;;28.50;54.90;;;27.77;53.88;101676.38;12253914;19;20265;-85
2023/08/16 08:44:02;;;;;;;;;;;28.60;54.60;;;27.84;53.66;101692.63;12254043;19;20432;-85
2023/08/16 08:48:04;;;;;;;;;;;28.70;54.50;;;27.85;53.68;101702.38;12241066;19;19986;-85
2023/08/16 08:57:03;;;;;;;;;;;28.60;54.30;;;27.84;53.70;101681.88;12177347;19;19918;-85
2023/08/16 09:01:07;;;;;;;;;;;28.70;54.30;;;27.95;53.46;101694.91;12246255;19;19929;-85
2023/08/16 09:05:10;;;;;;;;;;;28.70;54.40;;;28.06;53.74;101699.91;12243512;19;19943;-85
2023/08/16 09:09:12;;;;;;;;;;;28.80;54.20;;;28.12;53.57;101685.78;12242870;19;19922;-85
2023/08/16 09:13:14;;;;;;;;;;;29.00;54.40;;;28.31;53.31;101707.84;12241786;19;19961;-85
2023/08/16 09:17:15;;;;;;;;;;;29.10;54.00;;;28.30;53.89;101704.31;12241933;19;20294;-86
2023/08/16 09:21:18;;;;;;;;;;;29.10;52.30;;;28.27;53.90;101693.06;12246267;19;19910;-86
2023/08/16 09:25:21;;;;;;;;;;;29.10;53.30;;;28.27;53.76;101693.06;12243721;19;19925;-86
2023/08/16 09:29:24;;;;;;;;;;;29.20;53.30;;;28.33;53.44;101703.13;12242091;19;19919;-85
2023/08/16 09:33:26;;;;;;;;;;;29.10;53.00;;;28.34;53.68;101705.63;12245380;19;19943;-85
2023/08/16 09:37:29;;;;;;;;;;;29.10;53.20;;;28.40;53.54;101704.06;12240152;19;19944;-86
2023/08/16 09:41:31;;;;;;;;;;;29.20;53.50;;;28.53;53.51;101711.56;12241810;19;20408;-86
2023/08/16 09:45:34;;;;;;;;;;;29.30;53.40;;;28.61;53.41;101712.34;12240805;19;19927;-86
2023/08/16 09:49:37;;;;;;;;;;;29.30;53.70;;;28.65;53.37;101708.28;12241425;19;19947;-85
2023/08/16 09:53:46;;;;;;;;;;;29.40;53.40;;;28.54;53.13;101668.38;12246206;19;19926;-87
2023/08/16 09:57:48;;;;;;;;;;;29.50;53.60;;;28.72;53.47;101672.63;12249682;19;19910;-85
2023/08/16 10:01:50;;;;;;;;;;;29.60;53.60;;;28.90;53.08;101687.41;12245816;19;19978;-86
2023/08/16 10:05:52;;;;;;;;;;;29.70;53.60;;;28.99;53.00;101682.78;12245703;19;19922;-86
2023/08/16 10:09:54;;;;;;;;;;;29.80;53.30;;;29.09;53.15;101677.19;12241542;19;19915;-85
2023/08/16 10:13:56;;;;;;;;;;;29.90;53.30;;;29.11;52.89;101661.66;12247384;19;19970;-85
2023/08/16 10:17:59;;;;;;;;;;;30.00;52.70;;;29.09;53.07;101636.84;12241604;19;19922;-85
2023/08/16 10:22:01;;;;;;;;;;;30.10;52.40;;;29.31;52.73;101660.13;12249248;19;19915;-86
2023/08/16 10:26:04;;;;;;;;;;;30.20;51.20;;;29.34;52.76;101661.59;12244199;19;20273;-84
2023/08/16 10:30:08;;;;;;;;;;;30.30;51.40;;;29.33;52.58;101657.25;12244012;19;19923;-85
2023/08/16 10:34:14;;;;;;;;;;;30.30;50.40;;;29.43;52.60;101665.84;12245095;19;19978;-85
2023/08/16 10:38:16;;;;;;;;;;;30.30;52.10;;;29.56;52.96;101668.72;12243961;19;19982;-85
2023/08/16 10:42:17;;;;;;;;;;;30.30;51.90;;;29.62;52.73;101667.16;12241727;19;19926;-81
2023/08/16 10:46:31;;;;;;;;;;;30.50;52.50;;;29.63;52.84;101651.84;12242419;19;19953;-82
2023/08/16 10:50:34;;;;;;;;;;;30.50;50.90;;;29.81;52.39;101662.22;12247513;19;19915;-82
2023/08/16 10:54:36;;;;;;;;;;;30.60;51.40;;;29.87;52.44;101653.41;12244310;19;19919;-83
2023/08/16 10:58:50;;;;;;;;;;;30.70;52.50;;;29.96;52.53;101654.97;12240259;19;20417;-81
2023/08/16 11:02:54;;;;;;;;;;;30.80;52.40;;;29.74;52.56;101600.22;12243342;19;20336;-81
2023/08/16 11:06:56;;;;;;;;;;;30.90;51.50;;;30.06;52.36;101642.03;12238452;19;20299;-82
2023/08/16 11:11:01;;;;;;;;;;;31.00;51.30;;;30.28;52.39;101659.06;12242142;19;19930;-81
2023/08/16 11:15:04;;;;;;;;;;;31.10;51.90;;;30.42;52.39;101668.13;12242893;19;19922;-81
2023/08/16 11:19:06;;;;;;;;;;;31.20;52.50;;;30.52;52.01;101660.53;12243795;19;19982;-82
2023/08/16 11:23:08;;;;;;;;;;;31.30;52.20;;;30.48;52.00;101644.94;12244617;19;19932;-84
2023/08/16 11:27:10;;;;;;;;;;;31.40;52.00;;;30.67;51.97;101665.84;12237864;19;20325;-81
2023/08/16 11:31:12;;;;;;;;;;;31.50;50.90;;;30.61;51.77;101650.44;12244668;19;19925;-81
2023/08/16 11:35:13;;;;;;;;;;;31.60;50.90;;;30.71;51.75;101664.44;12241010;19;19911;-81
2023/08/16 11:39:15;;;;;;;;;;;31.60;50.90;;;30.77;51.90;101657.41;12242100;19;20005;-84
2023/08/16 11:43:17;;;;;;;;;;;31.70;51.30;;;30.80;51.50;101665.97;12243398;19;19923;-84
2023/08/16 11:47:19;;;;;;;;;;;31.70;50.90;;;30.78;51.39;101675.25;12238153;19;19919;-84
2023/08/16 11:51:21;;;;;;;;;;;31.60;51.30;;;30.77;51.74;101666.34;12226738;19;19925;-83
2023/08/16 11:55:22;;;;;;;;;;;31.60;51.20;;;30.93;51.74;101675.22;12236875;19;20328;-83
2023/08/16 11:59:28;;;;;;;;;;;31.70;51.30;;;30.99;51.50;101667.16;12238920;19;19934;-83
2023/08/16 12:03:33;;;;;;;;;;;31.80;51.30;;;31.06;51.47;101665.34;12241441;19;19930;-84
2023/08/16 12:07:43;;;;;;;;;;;31.80;50.20;;;31.04;51.21;101661.19;12234371;19;19923;-84
2023/08/16 12:11:50;;;;;;;;;;;31.90;51.60;;;31.05;51.00;101657.44;12239518;19;19970;-82
2023/08/16 12:16:18;;;;;;;;;;;31.90;49.90;;;31.05;50.97;101663.66;12235947;19;19934;-82
2023/08/16 12:20:20;;;;;;;;;;;31.80;50.60;;;31.02;51.13;101666.75;12240795;19;19922;-83
2023/08/16 12:24:21;;;;;;;;;;;31.80;50.90;;;31.02;50.84;101657.84;12233021;19;20014;-83
2023/08/16 12:28:22;;;;;;;;;;;31.80;51.30;;;31.07;51.04;101666.19;12235861;19;19933;-83
2023/08/16 12:32:24;;;;;;;;;;;31.80;50.20;;;30.99;50.87;101650.97;12240900;19;19943;-83
2023/08/16 12:36:25;;;;;;;;;;;31.80;50.60;;;30.96;50.63;101650.53;12248473;19;19926;-84
2023/08/16 12:40:29;;;;;;;;;;;31.80;50.80;;;30.93;50.39;101645.53;12247299;19;20451;-82
2023/08/16 12:44:31;;;;;;;;;;;31.70;50.40;;;30.90;50.67;101638.69;12236465;19;19926;-82
2023/08/16 12:48:32;;;;;;;;;;;31.70;50.70;;;30.89;50.29;101636.97;12237259;19;20257;-82
2023/08/16 12:52:34;;;;;;;;;;;31.70;50.40;;;30.91;50.47;101639.50;12242548;19;19934;-84
2023/08/16 12:56:35;;;;;;;;;;;31.70;50.60;;;30.90;50.26;101638.69;12238628;19;20324;-83
2023/08/16 13:00:37;;;;;;;;;;;31.70;50.30;;;30.93;50.62;101640.97;12247594;19;19936;-84
2023/08/16 13:04:39;;;;;;;;;;;31.70;50.70;;;30.99;50.32;101648.28;12249087;19;20613;-83
2023/08/16 13:08:40;;;;;;;;;;;31.70;50.50;;;30.93;50.36;101626.66;12250668;19;19922;-83
2023/08/16 13:12:42;;;;;;;;;;;31.70;50.70;;;31.09;50.47;101650.63;12250148;19;19951;-82
2023/08/16 13:16:44;;;;;;;;;;;31.80;50.40;;;31.09;50.44;101650.63;12248489;19;20333;-83
2023/08/16 13:20:45;;;;;;;;;;;31.80;50.60;;;31.20;49.99;101655.47;12252053;19;20621;-84
2023/08/16 13:24:47;;;;;;;;;;;31.80;50.50;;;31.24;49.91;101651.31;12253444;19;19919;-84
2023/08/16 13:28:48;;;;;;;;;;;31.90;50.70;;;31.25;50.25;101653.00;12250867;19;19911;-83
2023/08/16 13:32:51;;;;;;;;;;;31.90;50.00;;;31.25;49.93;101649.47;12250058;19;20320;-83
2023/08/16 13:36:52;;;;;;;;;;;31.90;50.50;;;31.30;50.10;101655.94;12233331;19;19925;-82
2023/08/16 13:40:53;;;;;;;;;;;31.90;50.50;;;31.36;50.11;101656.19;12235965;19;20246;-83
2023/08/16 13:45:28;;;;;;;;;;;32.00;50.70;;;31.31;49.95;101644.09;12227839;19;19947;-82
2023/08/16 13:49:31;;;;;;;;;;;32.00;50.40;;;31.22;49.69;101639.91;12228114;19;19922;-82
2023/08/16 13:53:32;;;;;;;;;;;32.00;49.30;;;31.24;49.67;101634.31;12236078;19;20305;-82
2023/08/16 13:57:33;;;;;;;;;;;31.90;49.90;;;31.28;50.03;101630.19;12238738;19;19954;-83
2023/08/16 14:01:36;;;;;;;;;;;32.00;47.70;;;31.28;49.57;101614.81;12244979;19;20340;-83
2023/08/16 14:05:41;;;;;;;;;;;32.00;50.10;;;31.33;49.22;101613.41;12236570;19;19927;-82
2023/08/16 14:09:43;;;;;;;;;;;32.00;46.70;;;31.34;49.36;101623.16;12243016;19;20597;-83
2023/08/16 14:13:44;;;;;;;;;;;32.00;49.00;;;31.30;49.21;101607.34;12241963;19;19953;-83
2023/08/16 14:17:46;;;;;;;;;;;32.00;48.50;;;31.42;49.23;101620.31;12244394;19;19923;-83
2023/08/16 14:21:47;;;;;;;;;;;32.10;48.60;;;31.45;49.32;101618.03;12244183;19;19926;-82
2023/08/16 14:25:51;;;;;;;;;;;32.10;49.00;;;31.51;48.90;101625.34;12245319;19;19925;-82
2023/08/16 14:29:52;;;;;;;;;;;32.10;48.40;;;31.53;49.46;101622.44;12242750;19;19948;-82
2023/08/16 14:33:54;;;;;;;;;;;32.10;46.90;;;31.49;49.13;101619.31;12242838;19;19934;-82
2023/08/16 14:37:56;;;;;;;;;;;32.20;49.30;;;31.47;49.04;101601.66;12244351;19;20539;-84
2023/08/16 14:41:58;;;;;;;;;;;32.20;48.00;;;31.55;49.09;101604.16;12246265;19;20225;-83
2023/08/16 14:45:59;;;;;;;;;;;32.20;48.70;;;31.59;48.92;101602.72;12244206;19;19917;-82
2023/08/16 14:50:02;;;;;;;;;;;32.20;47.50;;;31.55;48.69;101604.16;12235795;19;19919;-83
2023/08/16 14:54:04;;;;;;;;;;;32.20;46.80;;;31.56;48.79;101586.91;12239956;19;19948;-83
2023/08/16 14:58:05;;;;;;;;;;;32.20;48.50;;;31.59;48.47;101591.91;12235466;19;19927;-83
2023/08/16 15:02:07;;;;;;;;;;;32.20;48.40;;;31.61;48.74;101586.31;12241565;19;20664;-83
2023/08/16 15:06:08;;;;;;;;;;;32.20;48.50;;;31.62;48.48;101588.81;12242769;19;19918;-83
2023/08/16 15:10:10;;;;;;;;;;;32.20;47.10;;;31.59;48.51;101583.81;12242415;19;19975;-83
2023/08/16 15:14:11;;;;;;;;;;;32.20;47.80;;;31.59;48.66;101583.81;12243292;19;19945;-83
2023/08/16 15:18:13;;;;;;;;;;;32.20;47.70;;;31.57;48.15;101579.63;12224327;19;19927;-82
2023/08/16 15:22:14;;;;;;;;;;;32.20;47.00;;;31.51;48.27;101584.00;12242723;19;19911;-83
2023/08/16 15:26:16;;;;;;;;;;;32.10;47.10;;;31.47;48.35;101590.84;12239761;19;19923;-83
2023/08/16 15:30:17;;;;;;;;;;;32.10;46.80;;;31.37;48.32;101563.38;12238820;19;19918;-83
2023/08/16 15:34:18;;;;;;;;;;;32.00;48.20;;;31.41;48.11;101583.56;12241413;19;19990;-84
2023/08/16 15:38:39;;;;;;;;;;;32.10;48.40;;;31.50;48.01;101585.03;12241822;19;19923;-84
2023/08/16 15:42:40;;;;;;;;;;;32.10;48.00;;;31.45;48.19;101590.19;12237983;19;20766;-82
2023/08/16 15:46:42;;;;;;;;;;;32.00;46.80;;;31.22;47.88;101561.66;12230346;19;19922;-83
2023/08/16 15:50:44;;;;;;;;;;;32.00;46.60;;;31.37;47.97;101591.22;12239616;19;19925;-83
2023/08/16 15:54:45;;;;;;;;;;;31.90;47.80;;;31.28;47.77;101571.63;12241374;19;19911;-83
2023/08/16 15:58:46;;;;;;;;;;;31.90;48.20;;;31.40;47.96;101595.38;12241106;19;19915;-83
2023/08/16 16:02:48;;;;;;;;;;;31.90;48.10;;;31.38;48.07;101583.94;12239895;19;19918;-83
2023/08/16 16:06:49;;;;;;;;;;;31.90;48.50;;;31.44;47.83;101593.94;12236772;19;19923;-84
2023/08/16 16:10:51;;;;;;;;;;;31.90;48.20;;;31.33;47.63;101567.50;12240236;19;19915;-83
2023/08/16 16:14:52;;;;;;;;;;;31.90;48.40;;;31.35;47.75;101577.03;12235218;19;19943;-83
2023/08/16 16:18:53;;;;;;;;;;;31.90;47.70;;;31.40;47.72;101590.81;12233285;19;19956;-82
2023/08/16 16:22:56;;;;;;;;;;;31.90;47.70;;;31.29;47.60;101569.75;12238707;19;19927;-83
2023/08/16 16:26:57;;;;;;;;;;;31.90;47.80;;;31.31;47.76;101579.31;12235884;19;19918;-83
2023/08/16 16:30:59;;;;;;;;;;;31.90;47.50;;;31.29;47.55;101570.59;12240409;19;19918;-83
2023/08/16 16:35:01;;;;;;;;;;;31.90;46.30;;;31.08;47.46;101538.31;12244563;19;19931;-84
2023/08/16 16:39:03;;;;;;;;;;;31.90;46.50;;;31.28;47.67;101579.72;12250846;19;19931;-83
2023/08/16 16:43:04;;;;;;;;;;;31.90;47.70;;;31.28;47.20;101587.81;12251976;19;19939;-84
2023/08/16 16:47:06;;;;;;;;;;;31.80;47.40;;;31.27;47.17;101593.41;12248138;19;19922;-83
2023/08/16 16:51:07;;;;;;;;;;;31.80;47.50;;;31.22;47.12;101588.63;12252231;19;19918;-85
2023/08/16 16:55:09;;;;;;;;;;;31.80;47.90;;;31.18;47.34;101581.94;12251081;19;19923;-84
2023/08/16 16:59:11;;;;;;;;;;;31.80;47.10;;;31.17;47.10;101593.78;12253547;19;19911;-84
2023/08/16 17:03:12;;;;;;;;;;;31.70;47.50;;;31.15;47.38;101589.63;12250476;19;19941;-84
2023/08/16 17:07:14;;;;;;;;;;;31.70;47.30;;;30.86;47.26;101551.88;12245652;19;19925;-84
2023/08/16 17:11:15;;;;;;;;;;;31.60;47.00;;;30.97;47.16;101573.94;12248680;19;19934;-84
2023/08/16 17:15:17;;;;;;;;;;;31.60;47.50;;;30.94;47.33;101575.19;12248792;19;20264;-84
2023/08/16 17:19:18;;;;;;;;;;;31.50;47.50;;;30.97;47.29;101593.66;12244818;19;19929;-83
2023/08/16 17:23:20;;;;;;;;;;;31.40;47.80;;;30.95;46.97;101595.75;12250371;19;19978;-84
2023/08/16 17:27:22;;;;;;;;;;;31.40;47.70;;;30.93;47.35;101599.69;12245893;19;19918;-84
2023/08/16 17:31:23;;;;;;;;;;;31.40;47.60;;;30.74;46.94;101577.72;12249981;19;19955;-83
2023/08/16 17:35:25;;;;;;;;;;;31.30;47.00;;;30.68;47.13;101586.63;12237218;19;19918;-84
2023/08/16 17:39:26;;;;;;;;;;;31.30;47.80;;;30.46;46.96;101544.53;12248274;19;19929;-84
2023/08/16 17:43:29;;;;;;;;;;;31.20;48.10;;;30.69;47.24;101590.16;12241792;19;19949;-83
2023/08/16 17:47:30;;;;;;;;;;;31.10;48.30;;;30.62;47.23;101598.16;12240756;19;19917;-83
2023/08/16 17:51:32;;;;;;;;;;;31.00;48.40;;;30.58;46.89;101591.53;12244494;19;19927;-83
2023/08/16 17:55:34;;;;;;;;;;;31.00;48.50;;;30.49;46.82;101595.38;12247031;19;19926;-84
2023/08/16 17:59:36;;;;;;;;;;;30.90;48.60;;;30.40;46.94;101602.78;12251137;19;19922;-84
2023/08/16 18:03:37;;;;;;;;;;;30.80;48.60;;;30.12;47.17;101570.38;12256385;19;20288;-85
2023/08/16 18:07:38;;;;;;;;;;;30.80;48.60;;;30.27;47.15;101614.25;12249354;19;19917;-84
2023/08/16 18:11:40;;;;;;;;;;;30.70;48.60;;;30.15;46.96;101611.22;12252939;19;19939;-83
2023/08/16 18:15:42;;;;;;;;;;;30.60;48.60;;;30.09;46.92;101617.38;12249996;19;19915;-83